createdAt,value
2022-11-15T00:02:05.758Z,26.95
2022-11-15T00:06:27.808Z,29.08
2022-11-15T00:10:57.882Z,26.50
2022-11-15T00:15:19.311Z,29.02
2022-11-15T00:19:40.752Z,28.45
2022-11-15T00:24:02.266Z,28.90
2022-11-15T00:28:25.819Z,32.50
2022-11-15T00:32:47.478Z,28.10
2022-11-15T00:37:09.248Z,30.27
2022-11-15T00:41:30.709Z,33.47
2022-11-15T00:45:53.571Z,32.00
2022-11-15T00:50:15.766Z,29.83
2022-11-15T00:54:37.731Z,32.60
2022-11-15T00:58:59.513Z,32.92
2022-11-15T01:03:22.153Z,31.25
2022-11-15T01:07:43.913Z,36.88
2022-11-15T01:12:05.743Z,37.70
2022-11-15T01:16:27.262Z,36.33
2022-11-15T01:20:50.404Z,36.10
2022-11-15T01:25:11.766Z,38.08
2022-11-15T01:29:33.448Z,38.35
2022-11-15T01:33:55.087Z,35.63
2022-11-15T01:38:18.446Z,35.65
2022-11-15T01:42:40.278Z,34.20
2022-11-15T01:47:04.279Z,32.17
2022-11-15T01:51:28.834Z,32.10
2022-11-15T01:55:52.127Z,32.20
2022-11-15T02:00:15.649Z,37.90
2022-11-15T02:04:41.947Z,32.15
2022-11-15T02:09:03.899Z,32.33
2022-11-15T02:13:26.706Z,30.85
2022-11-15T02:18:08.328Z,32.42
2022-11-15T02:22:45.142Z,32.08
2022-11-15T02:27:28.979Z,33.78
2022-11-15T02:31:59.618Z,32.70
2022-11-15T02:36:32.860Z,32.30
2022-11-15T02:40:59.562Z,32.00
2022-11-15T02:45:27.027Z,29.88
2022-11-15T02:49:52.169Z,25.48
2022-11-15T02:54:17.360Z,32.30
2022-11-15T02:58:56.174Z,30.77
2022-11-15T03:03:31.391Z,30.58
2022-11-15T03:08:02.662Z,28.30
2022-11-15T03:12:30.311Z,33.15
2022-11-15T03:16:58.573Z,33.92
2022-11-15T03:21:22.391Z,36.05
2022-11-15T03:25:50.181Z,32.45
2022-11-15T03:30:13.406Z,29.60
2022-11-15T03:34:40.234Z,35.00
2022-11-15T03:39:07.289Z,32.30
2022-11-15T03:43:38.409Z,35.53
2022-11-15T03:48:04.589Z,32.15
2022-11-15T03:52:26.402Z,36.95
2022-11-15T03:56:48.024Z,33.28
2022-11-15T04:01:11.418Z,32.13
2022-11-15T04:05:33.121Z,36.03
2022-11-15T04:10:07.383Z,29.25
2022-11-15T04:14:28.591Z,35.83
2022-11-15T04:19:11.743Z,30.15
2022-11-15T04:24:02.314Z,31.15
2022-11-15T04:28:24.247Z,33.88
2022-11-15T04:32:45.642Z,34.75
2022-11-15T04:37:14.509Z,27.60
2022-11-15T04:41:36.287Z,31.80
2022-11-15T04:45:57.582Z,29.05
2022-11-15T04:50:19.596Z,29.90
2022-11-15T04:54:43.799Z,31.98
2022-11-15T04:59:05.562Z,29.73
2022-11-15T05:03:44.323Z,26.23
2022-11-15T05:08:06.774Z,26.30
2022-11-15T05:12:30.201Z,27.92
2022-11-15T05:16:52.331Z,30.77
2022-11-15T05:21:16.976Z,28.25
2022-11-15T05:25:39.118Z,28.45
2022-11-15T05:30:02.367Z,24.85
2022-11-15T05:34:25.834Z,23.50
2022-11-15T05:38:48.001Z,28.88
2022-11-15T05:43:10.238Z,30.73
2022-11-15T05:47:35.610Z,30.88
2022-11-15T05:51:58.567Z,29.73
2022-11-15T05:56:19.991Z,28.45
2022-11-15T06:00:41.986Z,29.30
2022-11-15T06:05:06.381Z,29.17
2022-11-15T06:09:28.256Z,29.58
2022-11-15T06:13:49.704Z,30.45
2022-11-15T06:18:11.566Z,27.83
2022-11-15T06:22:34.542Z,26.10
2022-11-15T06:26:55.974Z,29.50
2022-11-15T06:31:19.162Z,28.85
2022-11-15T06:35:40.855Z,27.27
2022-11-15T06:40:03.707Z,28.65
2022-11-15T06:44:25.220Z,28.83
2022-11-15T06:48:46.544Z,28.60
2022-11-15T06:53:08.018Z,30.05
2022-11-15T06:57:30.983Z,29.13
2022-11-15T07:01:52.653Z,30.65
2022-11-15T07:06:15.296Z,30.95
2022-11-15T07:10:36.950Z,29.15
2022-11-15T07:14:59.879Z,28.90
2022-11-15T07:19:21.658Z,28.15
2022-11-15T07:23:43.352Z,29.42
2022-11-15T07:28:05.666Z,33.20
2022-11-15T07:32:28.592Z,33.50
2022-11-15T07:36:51.044Z,29.92
2022-11-15T07:41:13.608Z,26.38
2022-11-15T07:45:35.783Z,33.00
2022-11-15T07:49:58.573Z,33.75
2022-11-15T07:54:20.402Z,32.30
2022-11-15T07:58:41.982Z,31.70
2022-11-15T08:03:04.964Z,41.33
2022-11-15T08:07:31.412Z,30.02
2022-11-15T08:11:53.247Z,30.30
2022-11-15T08:16:14.840Z,31.85
2022-11-15T08:20:37.688Z,32.28
2022-11-15T08:25:00.706Z,28.83
2022-11-15T08:29:22.083Z,28.33
2022-11-15T08:33:43.672Z,29.13
2022-11-15T08:38:04.886Z,29.13
2022-11-15T08:42:27.693Z,28.92
2022-11-15T08:46:49.367Z,30.98
2022-11-15T08:51:11.365Z,30.27
2022-11-15T08:55:33.005Z,28.88
2022-11-15T08:59:55.934Z,25.67
2022-11-15T09:04:17.560Z,29.90
2022-11-15T09:08:48.245Z,30.98
2022-11-15T09:13:13.369Z,29.77
2022-11-15T09:17:36.574Z,33.65
2022-11-15T09:21:58.095Z,32.30
2022-11-15T09:26:20.485Z,31.15
2022-11-15T09:30:41.825Z,32.03
2022-11-15T09:35:05.384Z,30.13
2022-11-15T09:39:27.024Z,31.38
2022-11-15T09:43:57.536Z,33.58
2022-11-15T09:48:37.812Z,33.60
2022-11-15T09:53:02.521Z,30.73
2022-11-15T09:57:13.137Z,35.42
2022-11-15T10:01:28.356Z,34.45
2022-11-15T10:05:32.556Z,29.85
2022-11-15T10:09:44.832Z,37.15
2022-11-15T10:13:50.476Z,31.30
2022-11-15T10:18:11.134Z,35.25
2022-11-15T10:22:27.697Z,34.78
2022-11-15T10:26:32.181Z,35.08
2022-11-15T10:30:37.504Z,36.30
2022-11-15T10:34:40.593Z,33.40
2022-11-15T10:38:57.792Z,41.22
2022-11-15T10:43:15.505Z,36.88
2022-11-15T10:47:27.397Z,38.50
2022-11-15T10:51:32.083Z,36.05
2022-11-15T10:55:36.966Z,40.10
2022-11-15T10:59:47.751Z,33.22
2022-11-15T11:04:02.102Z,35.55
2022-11-15T11:08:24.610Z,35.17
2022-11-15T11:12:33.770Z,28.17
2022-11-15T11:16:50.679Z,29.15
2022-11-15T11:21:00.286Z,32.58
2022-11-15T11:25:21.757Z,31.75
2022-11-15T11:29:40.594Z,29.30
2022-11-15T11:33:53.712Z,34.42
2022-11-15T11:38:07.442Z,29.08
2022-11-15T11:42:19.015Z,37.60
2022-11-15T11:46:41.184Z,35.50
2022-11-15T11:50:48.031Z,34.25
2022-11-15T11:55:06.483Z,34.97
2022-11-15T11:59:21.361Z,36.63
2022-11-15T12:03:30.745Z,33.33
2022-11-15T12:07:38.113Z,44.08
2022-11-15T12:11:56.455Z,41.15
2022-11-15T12:16:09.273Z,38.13
2022-11-15T12:20:19.713Z,40.10
2022-11-15T12:24:29.002Z,37.40
2022-11-15T12:28:52.913Z,37.88
2022-11-15T12:33:03.884Z,36.72
2022-11-15T12:37:49.384Z,37.20
2022-11-15T12:42:42.931Z,41.15
2022-11-15T12:47:05.002Z,42.65
2022-11-15T12:51:08.088Z,41.97
2022-11-15T12:55:32.804Z,37.75
2022-11-15T12:59:54.232Z,43.10
2022-11-15T13:04:25.125Z,35.17
2022-11-15T13:08:42.287Z,39.83
2022-11-15T13:12:54.893Z,40.55
2022-11-15T13:17:01.560Z,39.30
2022-11-15T13:21:23.859Z,39.60
2022-11-15T13:26:03.746Z,38.03
2022-11-15T13:30:07.634Z,37.45
2022-11-15T13:34:50.072Z,38.70
2022-11-15T13:38:57.270Z,42.00
2022-11-15T13:43:01.495Z,37.80
2022-11-15T13:47:07.248Z,37.67
2022-11-15T13:51:20.124Z,44.83
2022-11-15T13:55:24.903Z,40.22
2022-11-15T13:59:31.024Z,38.45
2022-11-15T14:03:35.960Z,45.45
2022-11-15T14:07:44.472Z,47.78
2022-11-15T14:11:55.498Z,46.65
2022-11-15T14:16:17.925Z,45.55
2022-11-15T14:20:33.563Z,38.78
2022-11-15T14:24:38.788Z,40.50
2022-11-15T14:28:41.784Z,45.90
2022-11-15T14:32:47.631Z,42.85
2022-11-15T14:36:50.777Z,42.95
2022-11-15T14:40:56.821Z,42.30
2022-11-15T14:45:00.073Z,45.03
2022-11-15T14:49:03.635Z,39.63
2022-11-15T14:53:07.270Z,48.67
2022-11-15T14:57:11.639Z,46.15
2022-11-15T15:01:25.151Z,43.03
2022-11-15T15:05:33.449Z,41.50
2022-11-15T15:09:36.431Z,42.38
2022-11-15T15:13:40.816Z,41.30
2022-11-15T15:17:44.104Z,45.78
2022-11-15T15:21:47.066Z,46.63
2022-11-15T15:25:50.860Z,45.92
2022-11-15T15:29:55.270Z,46.20
2022-11-15T15:33:58.238Z,41.10
2022-11-15T15:38:01.241Z,40.10
2022-11-15T15:42:04.907Z,42.55
2022-11-15T15:46:13.695Z,41.22
2022-11-15T15:50:23.267Z,42.63
2022-11-15T15:54:26.244Z,43.30
2022-11-15T15:58:29.719Z,41.72
2022-11-15T16:02:40.166Z,42.60
2022-11-15T16:06:51.308Z,45.17
2022-11-15T16:10:54.584Z,42.25
2022-11-15T16:14:57.649Z,41.53
2022-11-15T16:19:02.349Z,39.83
2022-11-15T16:23:09.360Z,39.80
2022-11-15T16:27:15.841Z,37.25
2022-11-15T16:31:22.137Z,38.13
2022-11-15T16:35:26.811Z,33.00
2022-11-15T16:39:30.928Z,31.50
2022-11-15T16:43:33.958Z,29.38
2022-11-15T16:47:36.972Z,29.67
2022-11-15T16:51:41.714Z,25.52
2022-11-15T16:55:44.948Z,29.63
2022-11-15T16:59:48.230Z,29.20
2022-11-15T17:03:51.703Z,29.13
2022-11-15T17:07:56.237Z,26.38
2022-11-15T17:11:59.331Z,27.23
2022-11-15T17:16:06.956Z,32.25
2022-11-15T17:20:16.580Z,26.42
2022-11-15T17:24:21.749Z,25.35
2022-11-15T17:28:24.777Z,28.40
2022-11-15T17:32:27.791Z,29.08
2022-11-15T17:36:31.246Z,29.42
2022-11-15T17:40:35.755Z,31.73
2022-11-15T17:44:38.736Z,29.73
2022-11-15T17:48:43.245Z,27.35
2022-11-15T17:52:46.410Z,26.25
2022-11-15T17:56:50.883Z,32.55
2022-11-15T18:00:53.921Z,26.75
2022-11-15T18:04:57.094Z,29.65
2022-11-15T18:09:00.783Z,29.58
2022-11-15T18:13:05.526Z,33.47
2022-11-15T18:17:08.740Z,28.70
2022-11-15T18:21:13.967Z,27.98
2022-11-15T18:25:17.704Z,31.27
2022-11-15T18:29:24.510Z,30.88
2022-11-15T18:33:28.188Z,27.65
2022-11-15T18:37:31.311Z,29.20
2022-11-15T18:41:36.307Z,30.95
2022-11-15T18:45:40.701Z,33.00
2022-11-15T18:49:43.660Z,27.00
2022-11-15T18:53:47.976Z,30.55
2022-11-15T18:57:50.908Z,28.90
2022-11-15T19:01:56.967Z,22.55
2022-11-15T19:06:04.019Z,19.13
2022-11-15T19:10:08.251Z,21.40
2022-11-15T19:14:12.736Z,21.40
2022-11-15T19:18:20.463Z,17.33
2022-11-15T19:22:23.907Z,20.67
2022-11-15T19:26:37.020Z,19.88
2022-11-15T19:30:40.645Z,18.15
2022-11-15T19:34:44.988Z,18.60
2022-11-15T19:38:48.371Z,17.42
2022-11-15T19:42:51.555Z,16.80
2022-11-15T19:46:54.833Z,15.27
2022-11-15T19:51:01.783Z,19.75
2022-11-15T19:55:05.180Z,17.50
2022-11-15T19:59:08.702Z,15.55
2022-11-15T20:03:12.190Z,13.85
2022-11-15T20:07:16.917Z,18.02
2022-11-15T20:11:21.295Z,13.63
2022-11-15T20:15:24.535Z,14.50
2022-11-15T20:19:27.727Z,16.15
2022-11-15T20:23:32.265Z,20.15
2022-11-15T20:27:35.375Z,15.77
2022-11-15T20:31:38.424Z,18.67
2022-11-15T20:35:42.189Z,19.25
2022-11-15T20:39:46.588Z,19.30
2022-11-15T20:43:49.720Z,22.85
2022-11-15T20:47:55.882Z,22.40
2022-11-15T20:51:58.898Z,21.67
2022-11-15T20:56:07.796Z,22.65
2022-11-15T21:00:11.936Z,23.90
2022-11-15T21:04:15.085Z,19.25
2022-11-15T21:08:18.060Z,21.60
2022-11-15T21:12:21.466Z,22.45
2022-11-15T21:16:24.474Z,24.17
2022-11-15T21:20:28.114Z,22.40
2022-11-15T21:24:31.373Z,22.42
2022-11-15T21:28:36.089Z,26.02
2022-11-15T21:32:39.378Z,24.08
2022-11-15T21:36:42.427Z,23.92
2022-11-15T21:40:45.541Z,22.98
2022-11-15T21:44:49.999Z,24.88
2022-11-15T21:48:52.966Z,24.40
2022-11-15T21:52:56.173Z,24.33
2022-11-15T21:56:59.728Z,22.05
2022-11-15T22:01:24.338Z,21.42
2022-11-15T22:05:27.693Z,23.48
2022-11-15T22:09:30.826Z,22.92
2022-11-15T22:13:34.341Z,20.42
2022-11-15T22:17:56.086Z,20.63
2022-11-15T22:21:59.276Z,21.58
2022-11-15T22:26:03.055Z,22.38
2022-11-15T22:30:06.797Z,21.83
2022-11-15T22:34:11.404Z,23.40
2022-11-15T22:38:14.823Z,22.55
2022-11-15T22:42:23.232Z,22.35
2022-11-15T22:46:27.885Z,26.92
2022-11-15T22:50:32.454Z,23.83
2022-11-15T22:54:35.772Z,25.35
2022-11-15T22:58:38.990Z,24.02
2022-11-15T23:02:42.367Z,24.63
2022-11-15T23:06:47.084Z,24.60
2022-11-15T23:11:07.537Z,24.77
2022-11-15T23:15:11.379Z,26.17
2022-11-15T23:19:14.779Z,26.73
2022-11-15T23:23:19.690Z,26.65
2022-11-15T23:27:23.878Z,26.05
2022-11-15T23:31:44.175Z,24.10
2022-11-15T23:35:54.950Z,23.73
2022-11-15T23:39:59.495Z,23.90
2022-11-15T23:44:02.805Z,26.98
2022-11-15T23:48:06.726Z,24.20
2022-11-15T23:52:09.914Z,29.33
2022-11-15T23:56:16.682Z,26.33
